To NAV CANADA Home Page Login to a new session Search on AWWS site Disclaimer Vers la page française équivalente Tips FAQ What's new on the site To the Forecasts and Observations / NOTAM section To "File a Flight Plan" website Publications and other links Update of the User's profile FIC Telephone Numbers My Weather Data Folder Route Weather Data Regional Weather Data Local Weather Data To the Forecasts and Observations / NOTAM section
Request Generated 12/03/2021 at 09:20:48 UTC . Weather information available at that time is displayed.

METAR/TAF

TORONTO/BILLY BISHOP TORONTO CITY AIRPORT/ON    (show WxCam)

METAR CYTZ 030900Z AUTO 32010G24KT 280V340 9SM OVC037 02/M06 A2996 RMK SLP151=
METAR CYTZ 030800Z AUTO 29015G21KT 9SM OVC037 02/M05 A2996 RMK SLP149=
METAR CYTZ 030700Z AUTO 30018G23KT 9SM OVC037 02/M05 A2992 RMK SLP137=

TAF CYTZ 030740Z 0308/0408 28013G23KT P6SM BKN040 BKN200
BECMG 0308/0310 VRB03KT
FM032000 31008KT P6SM SCT040 SCT140
FM040100 VRB03KT P6SM BKN040 BKN140
RMK FCST BASED ON AUTO OBS. NXT FCST BY 031400Z=
Your time UTC time
Weather data provided by Environment Canada and NAV CANADA